UAL433 KLAX-KSFO
Flight info
| Callsign | UAL433 |
|---|---|
| Flight time | 0h 56m |
| Altitude | 32000 |
| Route | SUMMR2 STOKD SERFR SERFR4 |
| Aircraft | B738/M-SDE2E3FGHIRWXY/LB1 |
Departure
| Time | 2026-04-26 19:32 |
|---|---|
| Airport | Los Angeles International Airport (KLAX) |
Arrival
| Time | 2026-04-26 20:29 |
|---|---|
| Airport | San Francisco International Airport (KSFO) |
| Time | Latitude | Longitude | Altitude | Speed | Heading |
|---|---|---|---|---|---|
| 2026-04-26 18:53 | 33.94169 | -118.39769 | 92 ft | 0 kts | 83° |
| 2026-04-26 19:14 | 33.94168 | -118.39775 | 92 ft | 4 kts | 83° |
| 2026-04-26 19:14 | 33.94166 | -118.39797 | 92 ft | 4 kts | 83° |
| 2026-04-26 19:15 | 33.94166 | -118.39829 | 92 ft | 4 kts | 130° |
| 2026-04-26 19:15 | 33.94177 | -118.39838 | 94 ft | 4 kts | 173° |
| 2026-04-26 19:15 | 33.94156 | -118.39835 | 92 ft | 4 kts | 173° |
| 2026-04-26 19:15 | 33.94145 | -118.39833 | 94 ft | 1 kts | 173° |
| 2026-04-26 19:17 | 33.94142 | -118.39833 | 94 ft | 2 kts | 173° |
| 2026-04-26 19:17 | 33.94114 | -118.39829 | 93 ft | 6 kts | 174° |
| 2026-04-26 19:18 | 33.94063 | -118.39827 | 92 ft | 7 kts | 184° |
| 2026-04-26 19:18 | 33.94054 | -118.39827 | 92 ft | 0 kts | 177° |
| 2026-04-26 19:21 | 33.94047 | -118.39827 | 92 ft | 4 kts | 177° |
| 2026-04-26 19:21 | 33.94005 | -118.39823 | 94 ft | 8 kts | 176° |
| 2026-04-26 19:22 | 33.93975 | -118.39870 | 93 ft | 8 kts | 260° |
| 2026-04-26 19:22 | 33.93967 | -118.39947 | 95 ft | 11 kts | 263° |
| 2026-04-26 19:22 | 33.93956 | -118.40057 | 93 ft | 15 kts | 262° |
| 2026-04-26 19:22 | 33.93941 | -118.40200 | 95 ft | 19 kts | 263° |
| 2026-04-26 19:23 | 33.93925 | -118.40366 | 93 ft | 21 kts | 263° |
| 2026-04-26 19:23 | 33.93907 | -118.40536 | 92 ft | 20 kts | 263° |
| 2026-04-26 19:23 | 33.93890 | -118.40701 | 92 ft | 20 kts | 263° |
| 2026-04-26 19:23 | 33.93873 | -118.40861 | 92 ft | 19 kts | 263° |
| 2026-04-26 19:24 | 33.93858 | -118.41010 | 93 ft | 15 kts | 263° |
| 2026-04-26 19:24 | 33.93850 | -118.41130 | 92 ft | 14 kts | 283° |
| 2026-04-26 19:24 | 33.94036 | -118.41187 | 93 ft | 17 kts | 353° |
| 2026-04-26 19:25 | 33.94170 | -118.41206 | 94 ft | 22 kts | 353° |
| 2026-04-26 19:25 | 33.94279 | -118.41223 | 93 ft | 24 kts | 352° |
| 2026-04-26 19:25 | 33.94493 | -118.41254 | 92 ft | 23 kts | 353° |
| 2026-04-26 19:25 | 33.94647 | -118.41278 | 92 ft | 21 kts | 353° |
| 2026-04-26 19:26 | 33.94759 | -118.41292 | 94 ft | 15 kts | 3° |
| 2026-04-26 19:26 | 33.94802 | -118.41193 | 95 ft | 15 kts | 83° |
| 2026-04-26 19:26 | 33.94816 | -118.41055 | 94 ft | 19 kts | 83° |
| 2026-04-26 19:26 | 33.94833 | -118.40888 | 94 ft | 20 kts | 83° |
| 2026-04-26 19:27 | 33.94850 | -118.40722 | 94 ft | 20 kts | 83° |
| 2026-04-26 19:27 | 33.94867 | -118.40561 | 94 ft | 19 kts | 83° |
| 2026-04-26 19:27 | 33.94878 | -118.40451 | 96 ft | 11 kts | 83° |
| 2026-04-26 19:27 | 33.94881 | -118.40419 | 94 ft | 0 kts | 83° |
| 2026-04-26 19:28 | 33.94882 | -118.40414 | 93 ft | 2 kts | 83° |
| 2026-04-26 19:28 | 33.94888 | -118.40361 | 93 ft | 10 kts | 83° |
| 2026-04-26 19:28 | 33.94897 | -118.40268 | 93 ft | 13 kts | 83° |
| 2026-04-26 19:29 | 33.94908 | -118.40157 | 93 ft | 13 kts | 83° |
| 2026-04-26 19:29 | 33.94920 | -118.40047 | 92 ft | 13 kts | 83° |
| 2026-04-26 19:29 | 33.94931 | -118.39955 | 92 ft | 10 kts | 70° |
| 2026-04-26 19:29 | 33.94940 | -118.39937 | 93 ft | 0 kts | 52° |
| 2026-04-26 19:30 | 33.94947 | -118.39928 | 92 ft | 4 kts | 42° |
| 2026-04-26 19:30 | 33.94991 | -118.39910 | 92 ft | 8 kts | 355° |
| 2026-04-26 19:30 | 33.95029 | -118.39918 | 92 ft | 7 kts | 341° |
| 2026-04-26 19:31 | 33.95042 | -118.39956 | 94 ft | 0 kts | 262° |
| 2026-04-26 19:31 | 33.95041 | -118.39962 | 94 ft | 4 kts | 262° |
| 2026-04-26 19:32 | 33.95013 | -118.40231 | 98 ft | 66 kts | 263° |
| 2026-04-26 19:32 | 33.94930 | -118.41042 | 96 ft | 126 kts | 263° |
| 2026-04-26 19:32 | 33.94808 | -118.42242 | 361 ft | 150 kts | 260° |
| 2026-04-26 19:32 | 33.94671 | -118.43477 | 1027 ft | 153 kts | 261° |
| 2026-04-26 19:33 | 33.94536 | -118.44769 | 1659 ft | 161 kts | 264° |
| 2026-04-26 19:33 | 33.94401 | -118.46204 | 1948 ft | 186 kts | 263° |
| 2026-04-26 19:33 | 33.94304 | -118.47838 | 2139 ft | 208 kts | 268° |
| 2026-04-26 19:33 | 33.94251 | -118.49665 | 2373 ft | 228 kts | 268° |
| 2026-04-26 19:34 | 33.94186 | -118.51613 | 2950 ft | 236 kts | 266° |
| 2026-04-26 19:34 | 33.94034 | -118.53612 | 3645 ft | 240 kts | 265° |
| 2026-04-26 19:34 | 33.93868 | -118.55608 | 4556 ft | 236 kts | 265° |
| 2026-04-26 19:34 | 33.93705 | -118.57610 | 5182 ft | 247 kts | 265° |
| 2026-04-26 19:35 | 33.93539 | -118.59690 | 5877 ft | 250 kts | 265° |
| 2026-04-26 19:35 | 33.93373 | -118.61775 | 6698 ft | 251 kts | 265° |
| 2026-04-26 19:35 | 33.93208 | -118.63872 | 7442 ft | 255 kts | 265° |
| 2026-04-26 19:35 | 33.93041 | -118.66000 | 8252 ft | 256 kts | 265° |
| 2026-04-26 19:36 | 33.92874 | -118.68157 | 9013 ft | 260 kts | 266° |
| 2026-04-26 19:36 | 33.92820 | -118.68862 | 9281 ft | 261 kts | 266° |
| 2026-04-26 19:36 | 33.92536 | -118.72522 | 10438 ft | 273 kts | 266° |
| 2026-04-26 19:36 | 33.92352 | -118.74913 | 10612 ft | 299 kts | 266° |
| 2026-04-26 19:37 | 33.92151 | -118.77489 | 10922 ft | 316 kts | 266° |
| 2026-04-26 19:37 | 33.91941 | -118.80161 | 11557 ft | 323 kts | 266° |
| 2026-04-26 19:37 | 33.91729 | -118.82866 | 11927 ft | 324 kts | 266° |
| 2026-04-26 19:37 | 33.91669 | -118.85590 | 12336 ft | 328 kts | 273° |
| 2026-04-26 19:38 | 33.91777 | -118.88341 | 13184 ft | 329 kts | 274° |
| 2026-04-26 19:38 | 33.91901 | -118.91102 | 13994 ft | 332 kts | 274° |
| 2026-04-26 19:38 | 33.92007 | -118.93904 | 14690 ft | 337 kts | 274° |
| 2026-04-26 19:38 | 33.92096 | -118.96705 | 15370 ft | 342 kts | 273° |
| 2026-04-26 19:39 | 33.92186 | -118.99589 | 16041 ft | 347 kts | 275° |
| 2026-04-26 19:39 | 33.92701 | -119.02437 | 16718 ft | 352 kts | 292° |
| 2026-04-26 19:39 | 33.93868 | -119.05049 | 17457 ft | 356 kts | 301° |
| 2026-04-26 19:39 | 33.95216 | -119.07590 | 18152 ft | 362 kts | 302° |
| 2026-04-26 19:40 | 33.96591 | -119.10151 | 18754 ft | 366 kts | 301° |
| 2026-04-26 19:40 | 33.97961 | -119.12749 | 19413 ft | 368 kts | 301° |
| 2026-04-26 19:40 | 33.99321 | -119.15371 | 20085 ft | 370 kts | 300° |
| 2026-04-26 19:40 | 34.00723 | -119.17997 | 20720 ft | 374 kts | 305° |
| 2026-04-26 19:41 | 34.02615 | -119.20178 | 21313 ft | 382 kts | 322° |
| 2026-04-26 19:41 | 34.04794 | -119.22035 | 21958 ft | 385 kts | 322° |
| 2026-04-26 19:41 | 34.07000 | -119.23887 | 22510 ft | 389 kts | 322° |
| 2026-04-26 19:41 | 34.07753 | -119.24519 | 22694 ft | 390 kts | 322° |
| 2026-04-26 19:42 | 34.11489 | -119.27678 | 23541 ft | 398 kts | 322° |
| 2026-04-26 19:42 | 34.13756 | -119.29612 | 24036 ft | 400 kts | 321° |
| 2026-04-26 19:42 | 34.16031 | -119.31563 | 24527 ft | 402 kts | 321° |
| 2026-04-26 19:42 | 34.18286 | -119.33503 | 24988 ft | 405 kts | 321° |
| 2026-04-26 19:43 | 34.20586 | -119.35487 | 25432 ft | 407 kts | 321° |
| 2026-04-26 19:43 | 34.22902 | -119.37485 | 25850 ft | 411 kts | 321° |
| 2026-04-26 19:43 | 34.25245 | -119.39509 | 26267 ft | 414 kts | 321° |
| 2026-04-26 19:43 | 34.27594 | -119.41540 | 26732 ft | 416 kts | 321° |
| 2026-04-26 19:44 | 34.29945 | -119.43573 | 27325 ft | 414 kts | 321° |
| 2026-04-26 19:44 | 34.32276 | -119.45589 | 27982 ft | 411 kts | 321° |
| 2026-04-26 19:44 | 34.34599 | -119.47600 | 28597 ft | 409 kts | 321° |
| 2026-04-26 19:44 | 34.36905 | -119.49600 | 29143 ft | 408 kts | 320° |
| 2026-04-26 19:45 | 34.39215 | -119.51603 | 29719 ft | 407 kts | 320° |
| 2026-04-26 19:45 | 34.41497 | -119.53625 | 30283 ft | 404 kts | 316° |
| 2026-04-26 19:45 | 34.43561 | -119.55907 | 30716 ft | 401 kts | 311° |
| 2026-04-26 19:45 | 34.45514 | -119.58322 | 31126 ft | 401 kts | 309° |
| 2026-04-26 19:46 | 34.47432 | -119.60758 | 31622 ft | 399 kts | 309° |
| 2026-04-26 19:46 | 34.49318 | -119.63168 | 31974 ft | 400 kts | 309° |
| 2026-04-26 19:46 | 34.53200 | -119.68072 | 31980 ft | 403 kts | 310° |
| 2026-04-26 19:47 | 34.55799 | -119.71304 | 31988 ft | 397 kts | 310° |
| 2026-04-26 19:47 | 34.60963 | -119.77689 | 32001 ft | 399 kts | 310° |
| 2026-04-26 19:48 | 34.64864 | -119.82514 | 32002 ft | 401 kts | 310° |
| 2026-04-26 19:48 | 34.68121 | -119.86546 | 32021 ft | 402 kts | 310° |
| 2026-04-26 19:49 | 34.72042 | -119.91406 | 32013 ft | 403 kts | 310° |
| 2026-04-26 19:49 | 34.76591 | -119.97052 | 32008 ft | 400 kts | 310° |
| 2026-04-26 19:50 | 34.79815 | -120.01061 | 32033 ft | 398 kts | 310° |
| 2026-04-26 19:50 | 34.83675 | -120.05867 | 32034 ft | 396 kts | 310° |
| 2026-04-26 19:51 | 34.87531 | -120.10676 | 32027 ft | 397 kts | 310° |
| 2026-04-26 19:51 | 34.91390 | -120.15497 | 32014 ft | 399 kts | 311° |
| 2026-04-26 19:52 | 34.95262 | -120.20339 | 32047 ft | 399 kts | 310° |
| 2026-04-26 19:52 | 34.99138 | -120.25193 | 32053 ft | 400 kts | 310° |
| 2026-04-26 19:53 | 35.03028 | -120.30072 | 32033 ft | 402 kts | 310° |
| 2026-04-26 19:53 | 35.06922 | -120.34963 | 32054 ft | 402 kts | 311° |
| 2026-04-26 19:54 | 35.10880 | -120.39786 | 32032 ft | 403 kts | 314° |
| 2026-04-26 19:54 | 35.15030 | -120.44391 | 32044 ft | 402 kts | 315° |
| 2026-04-26 19:55 | 35.19156 | -120.48934 | 32034 ft | 402 kts | 314° |
| 2026-04-26 19:55 | 35.23280 | -120.53547 | 32064 ft | 401 kts | 314° |
| 2026-04-26 19:56 | 35.27396 | -120.58176 | 32054 ft | 402 kts | 314° |
| 2026-04-26 19:56 | 35.31525 | -120.62830 | 32045 ft | 403 kts | 314° |
| 2026-04-26 19:57 | 35.35651 | -120.67485 | 32046 ft | 403 kts | 314° |
| 2026-04-26 19:57 | 35.39775 | -120.72143 | 32043 ft | 403 kts | 314° |
| 2026-04-26 19:58 | 35.43898 | -120.76809 | 32040 ft | 403 kts | 314° |
| 2026-04-26 19:58 | 35.47984 | -120.81438 | 32048 ft | 401 kts | 314° |
| 2026-04-26 19:59 | 35.52338 | -120.85753 | 32046 ft | 403 kts | 320° |
| 2026-04-26 19:59 | 35.56858 | -120.89830 | 32064 ft | 403 kts | 320° |
| 2026-04-26 20:00 | 35.61354 | -120.93923 | 32031 ft | 401 kts | 320° |
| 2026-04-26 20:00 | 35.65810 | -120.98041 | 32029 ft | 400 kts | 320° |
| 2026-04-26 20:01 | 35.70248 | -121.02171 | 32019 ft | 400 kts | 320° |
| 2026-04-26 20:01 | 35.74685 | -121.06309 | 32038 ft | 400 kts | 319° |
| 2026-04-26 20:02 | 35.79124 | -121.10455 | 32011 ft | 400 kts | 320° |
| 2026-04-26 20:02 | 35.82814 | -121.13905 | 32005 ft | 401 kts | 319° |
| 2026-04-26 20:03 | 35.88003 | -121.18764 | 32016 ft | 401 kts | 319° |
| 2026-04-26 20:03 | 35.90182 | -121.20807 | 31876 ft | 397 kts | 319° |
| 2026-04-26 20:03 | 35.92363 | -121.22851 | 31623 ft | 389 kts | 320° |
| 2026-04-26 20:04 | 35.94506 | -121.24862 | 31192 ft | 386 kts | 320° |
| 2026-04-26 20:04 | 35.96630 | -121.26858 | 30856 ft | 382 kts | 320° |
| 2026-04-26 20:04 | 35.98737 | -121.28840 | 30470 ft | 379 kts | 320° |
| 2026-04-26 20:04 | 36.00830 | -121.30810 | 30101 ft | 376 kts | 320° |
| 2026-04-26 20:05 | 36.02904 | -121.32761 | 29658 ft | 374 kts | 320° |
| 2026-04-26 20:05 | 36.04962 | -121.34701 | 29246 ft | 370 kts | 320° |
| 2026-04-26 20:05 | 36.07004 | -121.36613 | 28839 ft | 366 kts | 322° |
| 2026-04-26 20:05 | 36.09109 | -121.38371 | 28492 ft | 363 kts | 324° |
| 2026-04-26 20:06 | 36.11243 | -121.40029 | 28072 ft | 361 kts | 325° |
| 2026-04-26 20:06 | 36.13367 | -121.41646 | 27686 ft | 357 kts | 325° |
| 2026-04-26 20:06 | 36.15476 | -121.43255 | 27300 ft | 355 kts | 325° |
| 2026-04-26 20:06 | 36.17574 | -121.44867 | 26904 ft | 354 kts | 325° |
| 2026-04-26 20:07 | 36.19652 | -121.46474 | 26541 ft | 351 kts | 324° |
| 2026-04-26 20:07 | 36.21693 | -121.48062 | 26176 ft | 351 kts | 324° |
| 2026-04-26 20:07 | 36.23764 | -121.49677 | 25779 ft | 351 kts | 324° |
| 2026-04-26 20:07 | 36.25816 | -121.51288 | 25419 ft | 348 kts | 324° |
| 2026-04-26 20:08 | 36.27859 | -121.52878 | 25032 ft | 345 kts | 324° |
| 2026-04-26 20:08 | 36.29882 | -121.54460 | 24651 ft | 343 kts | 324° |
| 2026-04-26 20:08 | 36.31892 | -121.56036 | 24296 ft | 341 kts | 324° |
| 2026-04-26 20:08 | 36.33892 | -121.57608 | 23908 ft | 339 kts | 324° |
| 2026-04-26 20:09 | 36.35880 | -121.59169 | 23552 ft | 337 kts | 324° |
| 2026-04-26 20:09 | 36.37858 | -121.60723 | 23107 ft | 336 kts | 324° |
| 2026-04-26 20:09 | 36.39824 | -121.62270 | 22721 ft | 333 kts | 324° |
| 2026-04-26 20:09 | 36.41773 | -121.63800 | 22359 ft | 331 kts | 324° |
| 2026-04-26 20:10 | 36.43709 | -121.65325 | 21994 ft | 328 kts | 324° |
| 2026-04-26 20:10 | 36.45630 | -121.66838 | 21628 ft | 326 kts | 324° |
| 2026-04-26 20:10 | 36.47537 | -121.68342 | 21273 ft | 324 kts | 324° |
| 2026-04-26 20:10 | 36.49434 | -121.69837 | 20925 ft | 322 kts | 324° |
| 2026-04-26 20:11 | 36.51319 | -121.71324 | 20563 ft | 320 kts | 324° |
| 2026-04-26 20:11 | 36.53170 | -121.72786 | 20228 ft | 318 kts | 324° |
| 2026-04-26 20:11 | 36.55033 | -121.74258 | 19873 ft | 317 kts | 324° |
| 2026-04-26 20:12 | 36.58748 | -121.77197 | 19202 ft | 317 kts | 324° |
| 2026-04-26 20:12 | 36.60608 | -121.78670 | 18868 ft | 316 kts | 324° |
| 2026-04-26 20:12 | 36.62460 | -121.80137 | 18508 ft | 315 kts | 324° |
| 2026-04-26 20:12 | 36.64305 | -121.81600 | 18138 ft | 314 kts | 324° |
| 2026-04-26 20:13 | 36.66144 | -121.83059 | 17749 ft | 313 kts | 324° |
| 2026-04-26 20:13 | 36.67979 | -121.84515 | 17372 ft | 311 kts | 324° |
| 2026-04-26 20:13 | 36.69797 | -121.85958 | 17020 ft | 309 kts | 324° |
| 2026-04-26 20:13 | 36.71609 | -121.87398 | 16674 ft | 307 kts | 324° |
| 2026-04-26 20:14 | 36.73406 | -121.88822 | 16346 ft | 305 kts | 326° |
| 2026-04-26 20:14 | 36.75358 | -121.89864 | 16000 ft | 309 kts | 342° |
| 2026-04-26 20:14 | 36.77446 | -121.90437 | 15690 ft | 307 kts | 344° |
| 2026-04-26 20:14 | 36.79537 | -121.90984 | 15350 ft | 306 kts | 345° |
| 2026-04-26 20:15 | 36.81613 | -121.91535 | 15025 ft | 304 kts | 344° |
| 2026-04-26 20:15 | 36.83653 | -121.92086 | 14700 ft | 303 kts | 344° |
| 2026-04-26 20:15 | 36.85712 | -121.92652 | 14364 ft | 303 kts | 344° |
| 2026-04-26 20:15 | 36.87767 | -121.93221 | 14035 ft | 302 kts | 344° |
| 2026-04-26 20:16 | 36.89815 | -121.93792 | 13694 ft | 301 kts | 344° |
| 2026-04-26 20:16 | 36.91857 | -121.94363 | 13333 ft | 300 kts | 345° |
| 2026-04-26 20:16 | 36.93893 | -121.94933 | 12980 ft | 299 kts | 345° |
| 2026-04-26 20:16 | 36.95905 | -121.95533 | 12681 ft | 296 kts | 341° |
| 2026-04-26 20:17 | 36.97863 | -121.96264 | 12378 ft | 293 kts | 340° |
| 2026-04-26 20:17 | 36.99801 | -121.97035 | 12055 ft | 291 kts | 339° |
| 2026-04-26 20:17 | 37.01726 | -121.97807 | 11738 ft | 290 kts | 339° |
| 2026-04-26 20:17 | 37.02997 | -121.98316 | 11524 ft | 289 kts | 339° |
| 2026-04-26 20:18 | 37.05530 | -121.99319 | 11098 ft | 287 kts | 340° |
| 2026-04-26 20:18 | 37.07437 | -122.00070 | 10792 ft | 288 kts | 339° |
| 2026-04-26 20:18 | 37.09352 | -122.00823 | 10479 ft | 289 kts | 340° |
| 2026-04-26 20:18 | 37.11269 | -122.01574 | 10254 ft | 286 kts | 340° |
| 2026-04-26 20:19 | 37.13148 | -122.02310 | 10119 ft | 280 kts | 340° |
| 2026-04-26 20:19 | 37.14993 | -122.03032 | 9972 ft | 275 kts | 340° |
| 2026-04-26 20:19 | 37.16823 | -122.03749 | 9661 ft | 276 kts | 340° |
| 2026-04-26 20:19 | 37.18644 | -122.04462 | 9348 ft | 272 kts | 340° |
| 2026-04-26 20:20 | 37.20438 | -122.05165 | 9066 ft | 270 kts | 340° |
| 2026-04-26 20:20 | 37.22229 | -122.05868 | 8749 ft | 269 kts | 340° |
| 2026-04-26 20:20 | 37.24007 | -122.06567 | 8496 ft | 267 kts | 341° |
| 2026-04-26 20:20 | 37.25780 | -122.07264 | 8207 ft | 267 kts | 341° |
| 2026-04-26 20:21 | 37.27553 | -122.07946 | 7934 ft | 266 kts | 340° |
| 2026-04-26 20:21 | 37.29334 | -122.08650 | 7601 ft | 270 kts | 341° |
| 2026-04-26 20:21 | 37.31116 | -122.09352 | 7239 ft | 274 kts | 340° |
| 2026-04-26 20:21 | 37.32943 | -122.10085 | 6876 ft | 274 kts | 340° |
| 2026-04-26 20:22 | 37.34757 | -122.10800 | 6519 ft | 272 kts | 339° |
| 2026-04-26 20:22 | 37.36554 | -122.11501 | 6131 ft | 268 kts | 340° |
| 2026-04-26 20:22 | 37.38317 | -122.12185 | 5855 ft | 265 kts | 341° |
| 2026-04-26 20:22 | 37.40108 | -122.12802 | 5503 ft | 267 kts | 342° |
| 2026-04-26 20:23 | 37.41900 | -122.13405 | 5174 ft | 267 kts | 342° |
| 2026-04-26 20:23 | 37.43694 | -122.14013 | 4859 ft | 267 kts | 342° |
| 2026-04-26 20:23 | 37.45478 | -122.14617 | 4516 ft | 263 kts | 343° |
| 2026-04-26 20:23 | 37.47231 | -122.15189 | 4190 ft | 256 kts | 343° |
| 2026-04-26 20:24 | 37.48929 | -122.15746 | 3888 ft | 249 kts | 342° |
| 2026-04-26 20:24 | 37.50587 | -122.16290 | 3588 ft | 242 kts | 341° |
| 2026-04-26 20:24 | 37.52199 | -122.16822 | 3307 ft | 237 kts | 342° |
| 2026-04-26 20:24 | 37.53665 | -122.17572 | 3005 ft | 224 kts | 317° |
| 2026-04-26 20:25 | 37.54471 | -122.19103 | 2819 ft | 203 kts | 289° |
| 2026-04-26 20:25 | 37.54859 | -122.20180 | 2759 ft | 194 kts | 294° |
| 2026-04-26 20:25 | 37.55682 | -122.22115 | 2466 ft | 184 kts | 295° |
| 2026-04-26 20:25 | 37.56266 | -122.23500 | 2216 ft | 173 kts | 295° |
| 2026-04-26 20:26 | 37.56805 | -122.24792 | 2000 ft | 160 kts | 295° |
| 2026-04-26 20:26 | 37.57304 | -122.25993 | 1760 ft | 151 kts | 295° |
| 2026-04-26 20:26 | 37.57790 | -122.27194 | 1511 ft | 152 kts | 295° |
| 2026-04-26 20:26 | 37.58250 | -122.28290 | 1380 ft | 135 kts | 295° |
| 2026-04-26 20:27 | 37.58695 | -122.29337 | 1148 ft | 138 kts | 296° |
| 2026-04-26 20:27 | 37.59133 | -122.30403 | 986 ft | 137 kts | 295° |
| 2026-04-26 20:27 | 37.59575 | -122.31460 | 820 ft | 135 kts | 295° |
| 2026-04-26 20:27 | 37.60007 | -122.32485 | 601 ft | 133 kts | 297° |
| 2026-04-26 20:28 | 37.60448 | -122.33540 | 421 ft | 137 kts | 296° |
| 2026-04-26 20:28 | 37.60874 | -122.34589 | 299 ft | 132 kts | 294° |
| 2026-04-26 20:28 | 37.61304 | -122.35595 | 108 ft | 131 kts | 297° |
| 2026-04-26 20:28 | 37.61720 | -122.36592 | 23 ft | 117 kts | 296° |
| 2026-04-26 20:29 | 37.61998 | -122.37256 | 21 ft | 54 kts | 298° |
| 2026-04-26 20:29 | 37.62152 | -122.37622 | 21 ft | 42 kts | 297° |
| 2026-04-26 20:29 | 37.62228 | -122.37944 | 22 ft | 34 kts | 271° |
| 2026-04-26 20:29 | 37.62225 | -122.38123 | 21 ft | 12 kts | 268° |
| 2026-04-26 20:30 | 37.62180 | -122.38199 | 21 ft | 12 kts | 209° |
| 2026-04-26 20:30 | 37.62110 | -122.38247 | 21 ft | 8 kts | 207° |
| 2026-04-26 20:30 | 37.62104 | -122.38250 | 23 ft | 0 kts | 207° |
| 2026-04-26 20:31 | 37.62103 | -122.38251 | 22 ft | 1 kts | 207° |
| 2026-04-26 20:31 | 37.62071 | -122.38272 | 21 ft | 8 kts | 208° |
| 2026-04-26 20:31 | 37.62012 | -122.38295 | 21 ft | 10 kts | 156° |
| 2026-04-26 20:32 | 37.61974 | -122.38221 | 21 ft | 11 kts | 117° |
| 2026-04-26 20:32 | 37.61930 | -122.38116 | 21 ft | 16 kts | 118° |
| 2026-04-26 20:32 | 37.61863 | -122.38001 | 21 ft | 16 kts | 140° |
| 2026-04-26 20:32 | 37.61762 | -122.37949 | 21 ft | 16 kts | 171° |
| 2026-04-26 20:33 | 37.61708 | -122.37958 | 21 ft | 7 kts | 240° |
| 2026-04-26 20:33 | 37.61709 | -122.38014 | 21 ft | 5 kts | 274° |
| 2026-04-26 20:33 | 37.61711 | -122.38038 | 23 ft | 1 kts | 276° |
| 2026-04-26 20:33 | 37.61711 | -122.38041 | 23 ft | 0 kts | 276° |